sensor_id;sensor_type;location;lat;lon;timestamp;P1;durP1;ratioP1;P2;durP2;ratioP2
4428;SDS011;2227;47.810;8.810;2023-07-30T04:31:06;4.68;;;2.90;;
4428;SDS011;2227;47.810;8.810;2023-07-30T04:33:33;4.28;;;2.45;;
4428;SDS011;2227;47.810;8.810;2023-07-30T04:36:00;5.10;;;2.80;;
4428;SDS011;2227;47.810;8.810;2023-07-30T04:38:26;4.13;;;2.35;;
4428;SDS011;2227;47.810;8.810;2023-07-30T04:40:53;5.18;;;2.83;;
4428;SDS011;2227;47.810;8.810;2023-07-30T04:43:20;4.80;;;2.40;;
4428;SDS011;2227;47.810;8.810;2023-07-30T04:45:47;4.40;;;2.78;;
4428;SDS011;2227;47.810;8.810;2023-07-30T04:48:14;5.15;;;2.92;;
4428;SDS011;2227;47.810;8.810;2023-07-30T04:50:41;4.43;;;2.53;;
4428;SDS011;2227;47.810;8.810;2023-07-30T04:53:08;4.18;;;2.65;;
4428;SDS011;2227;47.810;8.810;2023-07-30T04:55:35;4.47;;;2.95;;
4428;SDS011;2227;47.810;8.810;2023-07-30T04:58:01;4.28;;;2.50;;
4428;SDS011;2227;47.810;8.810;2023-07-30T05:00:29;3.80;;;2.53;;
4428;SDS011;2227;47.810;8.810;2023-07-30T05:02:56;4.55;;;2.90;;
4428;SDS011;2227;47.810;8.810;2023-07-30T05:05:23;4.25;;;2.80;;
4428;SDS011;2227;47.810;8.810;2023-07-30T05:07:50;4.88;;;3.17;;
4428;SDS011;2227;47.810;8.810;2023-07-30T05:10:17;5.05;;;3.30;;
4428;SDS011;2227;47.810;8.810;2023-07-30T05:12:44;3.95;;;2.78;;
4428;SDS011;2227;47.810;8.810;2023-07-30T05:15:11;4.28;;;2.70;;
4428;SDS011;2227;47.810;8.810;2023-07-30T05:17:38;3.50;;;2.33;;
4428;SDS011;2227;47.810;8.810;2023-07-30T05:20:04;4.15;;;2.70;;
4428;SDS011;2227;47.810;8.810;2023-07-30T05:22:32;5.75;;;3.22;;
4428;SDS011;2227;47.810;8.810;2023-07-30T05:24:59;4.68;;;3.08;;
4428;SDS011;2227;47.810;8.810;2023-07-30T05:27:26;4.53;;;3.38;;
4428;SDS011;2227;47.810;8.810;2023-07-30T05:29:55;5.95;;;3.80;;
4428;SDS011;2227;47.810;8.810;2023-07-30T05:32:21;5.78;;;3.80;;
4428;SDS011;2227;47.810;8.810;2023-07-30T05:34:48;5.43;;;3.80;;
4428;SDS011;2227;47.810;8.810;2023-07-30T05:37:15;5.57;;;3.67;;
4428;SDS011;2227;47.810;8.810;2023-07-30T05:39:42;4.93;;;3.22;;
4428;SDS011;2227;47.810;8.810;2023-07-30T05:42:09;5.78;;;3.22;;
4428;SDS011;2227;47.810;8.810;2023-07-30T05:44:35;5.57;;;3.17;;
4428;SDS011;2227;47.810;8.810;2023-07-30T05:47:02;5.10;;;3.17;;
4428;SDS011;2227;47.810;8.810;2023-07-30T05:49:29;5.40;;;3.00;;
4428;SDS011;2227;47.810;8.810;2023-07-30T05:51:56;4.20;;;2.30;;
4428;SDS011;2227;47.810;8.810;2023-07-30T05:54:23;4.22;;;2.40;;
4428;SDS011;2227;47.810;8.810;2023-07-30T05:56:49;4.13;;;2.40;;
4428;SDS011;2227;47.810;8.810;2023-07-30T05:59:16;3.80;;;2.30;;
4428;SDS011;2227;47.810;8.810;2023-07-30T06:01:46;5.35;;;2.25;;
4428;SDS011;2227;47.810;8.810;2023-07-30T06:04:13;4.28;;;2.60;;
4428;SDS011;2227;47.810;8.810;2023-07-30T06:06:40;3.90;;;2.38;;
4428;SDS011;2227;47.810;8.810;2023-07-30T06:09:07;4.45;;;2.40;;
4428;SDS011;2227;47.810;8.810;2023-07-30T06:11:34;3.95;;;2.47;;
4428;SDS011;2227;47.810;8.810;2023-07-30T06:14:01;4.63;;;2.45;;
4428;SDS011;2227;47.810;8.810;2023-07-30T06:16:28;3.67;;;2.22;;
4428;SDS011;2227;47.810;8.810;2023-07-30T06:18:55;5.95;;;2.80;;
4428;SDS011;2227;47.810;8.810;2023-07-30T06:21:22;5.10;;;2.45;;
4428;SDS011;2227;47.810;8.810;2023-07-30T06:23:48;4.10;;;2.50;;
4428;SDS011;2227;47.810;8.810;2023-07-30T06:26:15;5.75;;;2.35;;
4428;SDS011;2227;47.810;8.810;2023-07-30T06:28:42;4.72;;;2.50;;
4428;SDS011;2227;47.810;8.810;2023-07-30T06:31:09;3.78;;;2.63;;
4428;SDS011;2227;47.810;8.810;2023-07-30T06:33:35;4.05;;;2.15;;
4428;SDS011;2227;47.810;8.810;2023-07-30T06:36:04;4.45;;;2.50;;
4428;SDS011;2227;47.810;8.810;2023-07-30T06:38:30;3.70;;;2.47;;
4428;SDS011;2227;47.810;8.810;2023-07-30T06:40:57;3.95;;;2.47;;
4428;SDS011;2227;47.810;8.810;2023-07-30T06:43:24;3.85;;;2.47;;
4428;SDS011;2227;47.810;8.810;2023-07-30T06:45:51;3.95;;;2.30;;
4428;SDS011;2227;47.810;8.810;2023-07-30T06:48:19;3.17;;;1.90;;
4428;SDS011;2227;47.810;8.810;2023-07-30T06:50:46;3.45;;;1.77;;
4428;SDS011;2227;47.810;8.810;2023-07-30T06:53:13;3.42;;;1.52;;
4428;SDS011;2227;47.810;8.810;2023-07-30T06:55:39;2.90;;;1.55;;
4428;SDS011;2227;47.810;8.810;2023-07-30T06:58:06;2.33;;;1.38;;
4428;SDS011;2227;47.810;8.810;2023-07-30T07:00:33;2.42;;;1.20;;
4428;SDS011;2227;47.810;8.810;2023-07-30T07:03:00;3.10;;;1.30;;
4428;SDS011;2227;47.810;8.810;2023-07-30T07:05:27;2.78;;;1.30;;
4428;SDS011;2227;47.810;8.810;2023-07-30T07:07:53;2.17;;;1.10;;
4428;SDS011;2227;47.810;8.810;2023-07-30T07:10:20;3.25;;;1.80;;
4428;SDS011;2227;47.810;8.810;2023-07-30T07:12:47;3.15;;;1.40;;
4428;SDS011;2227;47.810;8.810;2023-07-30T07:15:14;2.35;;;1.20;;
4428;SDS011;2227;47.810;8.810;2023-07-30T07:17:41;1.60;;;0.93;;
4428;SDS011;2227;47.810;8.810;2023-07-30T07:20:08;1.92;;;0.98;;
4428;SDS011;2227;47.810;8.810;2023-07-30T07:22:35;3.75;;;1.30;;
4428;SDS011;2227;47.810;8.810;2023-07-30T07:25:01;2.00;;;1.17;;
4428;SDS011;2227;47.810;8.810;2023-07-30T07:27:28;1.88;;;1.15;;
4428;SDS011;2227;47.810;8.810;2023-07-30T07:29:55;2.72;;;1.20;;
4428;SDS011;2227;47.810;8.810;2023-07-30T07:32:22;2.78;;;1.00;;
4428;SDS011;2227;47.810;8.810;2023-07-30T07:34:49;3.25;;;1.38;;
4428;SDS011;2227;47.810;8.810;2023-07-30T07:37:16;3.35;;;1.10;;
4428;SDS011;2227;47.810;8.810;2023-07-30T07:39:45;2.78;;;1.20;;
4428;SDS011;2227;47.810;8.810;2023-07-30T07:42:12;2.20;;;1.13;;
4428;SDS011;2227;47.810;8.810;2023-07-30T07:44:39;2.83;;;1.30;;
4428;SDS011;2227;47.810;8.810;2023-07-30T07:47:06;2.05;;;1.00;;
4428;SDS011;2227;47.810;8.810;2023-07-30T07:49:32;2.00;;;1.15;;
4428;SDS011;2227;47.810;8.810;2023-07-30T07:51:59;1.60;;;0.85;;
4428;SDS011;2227;47.810;8.810;2023-07-30T07:54:26;1.80;;;0.80;;
4428;SDS011;2227;47.810;8.810;2023-07-30T07:56:52;2.10;;;0.95;;
4428;SDS011;2227;47.810;8.810;2023-07-30T07:59:19;2.35;;;0.95;;
4428;SDS011;2227;47.810;8.810;2023-07-30T08:01:46;1.50;;;0.85;;
4428;SDS011;2227;47.810;8.810;2023-07-30T08:04:13;1.83;;;0.73;;
4428;SDS011;2227;47.810;8.810;2023-07-30T08:06:40;1.48;;;0.90;;
4428;SDS011;2227;47.810;8.810;2023-07-30T08:09:06;2.42;;;1.00;;
4428;SDS011;2227;47.810;8.810;2023-07-30T08:11:33;1.25;;;0.80;;
4428;SDS011;2227;47.810;8.810;2023-07-30T08:14:00;1.83;;;0.80;;
4428;SDS011;2227;47.810;8.810;2023-07-30T08:16:27;1.40;;;0.70;;
4428;SDS011;2227;47.810;8.810;2023-07-30T08:18:54;1.13;;;0.60;;
4428;SDS011;2227;47.810;8.810;2023-07-30T08:21:21;1.65;;;0.70;;
4428;SDS011;2227;47.810;8.810;2023-07-30T08:23:47;1.42;;;0.80;;
4428;SDS011;2227;47.810;8.810;2023-07-30T08:26:14;1.55;;;0.80;;
4428;SDS011;2227;47.810;8.810;2023-07-30T08:28:41;1.75;;;0.73;;
4428;SDS011;2227;47.810;8.810;2023-07-30T08:31:08;1.70;;;0.80;;
4428;SDS011;2227;47.810;8.810;2023-07-30T08:33:35;1.40;;;0.80;;
4428;SDS011;2227;47.810;8.810;2023-07-30T08:36:01;1.52;;;0.77;;
4428;SDS011;2227;47.810;8.810;2023-07-30T08:38:28;1.55;;;0.90;;
4428;SDS011;2227;47.810;8.810;2023-07-30T08:40:56;1.33;;;0.60;;
4428;SDS011;2227;47.810;8.810;2023-07-30T08:43:23;1.17;;;0.63;;
4428;SDS011;2227;47.810;8.810;2023-07-30T08:45:50;1.45;;;0.82;;
4428;SDS011;2227;47.810;8.810;2023-07-30T08:48:16;1.90;;;0.90;;
4428;SDS011;2227;47.810;8.810;2023-07-30T08:50:43;1.75;;;0.75;;
4428;SDS011;2227;47.810;8.810;2023-07-30T08:53:12;1.50;;;0.60;;
4428;SDS011;2227;47.810;8.810;2023-07-30T08:55:40;1.40;;;0.70;;
4428;SDS011;2227;47.810;8.810;2023-07-30T08:58:07;1.70;;;0.80;;
4428;SDS011;2227;47.810;8.810;2023-07-30T09:00:37;1.63;;;0.80;;
4428;SDS011;2227;47.810;8.810;2023-07-30T09:03:07;1.65;;;0.85;;
4428;SDS011;2227;47.810;8.810;2023-07-30T09:05:35;1.63;;;0.70;;
4428;SDS011;2227;47.810;8.810;2023-07-30T09:08:04;2.50;;;1.15;;
4428;SDS011;2227;47.810;8.810;2023-07-30T09:10:32;2.03;;;0.90;;
4428;SDS011;2227;47.810;8.810;2023-07-30T09:12:58;2.08;;;0.90;;
4428;SDS011;2227;47.810;8.810;2023-07-30T09:15:29;1.80;;;0.80;;
4428;SDS011;2227;47.810;8.810;2023-07-30T09:18:00;2.13;;;0.90;;
4428;SDS011;2227;47.810;8.810;2023-07-30T09:20:28;1.88;;;0.90;;
4428;SDS011;2227;47.810;8.810;2023-07-30T09:23:07;2.67;;;1.05;;
4428;SDS011;2227;47.810;8.810;2023-07-30T09:25:35;1.35;;;0.73;;
4428;SDS011;2227;47.810;8.810;2023-07-30T09:28:04;1.15;;;0.75;;
4428;SDS011;2227;47.810;8.810;2023-07-30T09:30:33;2.70;;;1.10;;
4428;SDS011;2227;47.810;8.810;2023-07-30T09:33:00;2.05;;;0.98;;
4428;SDS011;2227;47.810;8.810;2023-07-30T09:35:26;1.45;;;0.93;;
4428;SDS011;2227;47.810;8.810;2023-07-30T09:38:00;2.00;;;0.90;;
4428;SDS011;2227;47.810;8.810;2023-07-30T09:40:33;2.03;;;1.00;;
4428;SDS011;2227;47.810;8.810;2023-07-30T09:43:02;2.20;;;1.20;;
4428;SDS011;2227;47.810;8.810;2023-07-30T09:45:34;2.88;;;1.00;;
4428;SDS011;2227;47.810;8.810;2023-07-30T09:48:03;1.92;;;1.20;;
4428;SDS011;2227;47.810;8.810;2023-07-30T09:50:35;2.50;;;1.10;;
4428;SDS011;2227;47.810;8.810;2023-07-30T09:53:03;2.05;;;0.98;;
4428;SDS011;2227;47.810;8.810;2023-07-30T09:55:31;3.30;;;1.23;;
4428;SDS011;2227;47.810;8.810;2023-07-30T09:57:58;2.15;;;0.93;;
4428;SDS011;2227;47.810;8.810;2023-07-30T10:00:25;1.55;;;0.75;;
4428;SDS011;2227;47.810;8.810;2023-07-30T10:02:54;2.17;;;1.10;;
4428;SDS011;2227;47.810;8.810;2023-07-30T10:05:25;2.45;;;0.98;;
4428;SDS011;2227;47.810;8.810;2023-07-30T10:10:28;1.48;;;0.90;;
4428;SDS011;2227;47.810;8.810;2023-07-30T10:12:59;2.50;;;1.20;;
4428;SDS011;2227;47.810;8.810;2023-07-30T10:15:29;3.33;;;1.10;;
4428;SDS011;2227;47.810;8.810;2023-07-30T10:17:59;1.98;;;0.90;;
4428;SDS011;2227;47.810;8.810;2023-07-30T10:20:30;1.67;;;0.95;;
4428;SDS011;2227;47.810;8.810;2023-07-30T10:22:58;2.47;;;1.30;;
4428;SDS011;2227;47.810;8.810;2023-07-30T10:25:28;1.95;;;0.90;;
4428;SDS011;2227;47.810;8.810;2023-07-30T10:27:57;3.08;;;1.10;;
4428;SDS011;2227;47.810;8.810;2023-07-30T10:30:29;2.95;;;1.20;;
4428;SDS011;2227;47.810;8.810;2023-07-30T10:32:59;3.35;;;1.33;;
4428;SDS011;2227;47.810;8.810;2023-07-30T10:35:37;2.38;;;1.30;;
4428;SDS011;2227;47.810;8.810;2023-07-30T10:41:07;2.10;;;0.70;;
4428;SDS011;2227;47.810;8.810;2023-07-30T10:43:36;2.38;;;1.20;;
4428;SDS011;2227;47.810;8.810;2023-07-30T10:46:06;2.03;;;1.10;;
4428;SDS011;2227;47.810;8.810;2023-07-30T10:48:38;2.65;;;1.40;;
4428;SDS011;2227;47.810;8.810;2023-07-30T10:51:10;2.00;;;1.10;;
4428;SDS011;2227;47.810;8.810;2023-07-30T10:53:39;2.28;;;1.33;;
4428;SDS011;2227;47.810;8.810;2023-07-30T10:56:12;2.28;;;1.17;;
4428;SDS011;2227;47.810;8.810;2023-07-30T10:58:39;1.80;;;1.05;;
4428;SDS011;2227;47.810;8.810;2023-07-30T11:01:07;3.20;;;1.40;;
4428;SDS011;2227;47.810;8.810;2023-07-30T11:03:35;3.35;;;1.58;;
4428;SDS011;2227;47.810;8.810;2023-07-30T11:06:04;2.50;;;1.20;;
4428;SDS011;2227;47.810;8.810;2023-07-30T11:08:32;2.78;;;1.10;;
4428;SDS011;2227;47.810;8.810;2023-07-30T11:11:07;2.67;;;1.00;;
4428;SDS011;2227;47.810;8.810;2023-07-30T11:13:38;2.83;;;1.10;;
4428;SDS011;2227;47.810;8.810;2023-07-30T11:16:10;1.88;;;1.02;;
4428;SDS011;2227;47.810;8.810;2023-07-30T11:18:37;2.25;;;1.30;;
4428;SDS011;2227;47.810;8.810;2023-07-30T11:21:05;2.78;;;1.30;;
4428;SDS011;2227;47.810;8.810;2023-07-30T11:23:33;3.75;;;1.25;;
4428;SDS011;2227;47.810;8.810;2023-07-30T11:26:01;3.08;;;1.50;;
4428;SDS011;2227;47.810;8.810;2023-07-30T11:28:33;2.35;;;1.00;;
4428;SDS011;2227;47.810;8.810;2023-07-30T11:31:04;2.50;;;1.25;;
4428;SDS011;2227;47.810;8.810;2023-07-30T11:33:53;2.47;;;0.95;;
4428;SDS011;2227;47.810;8.810;2023-07-30T11:36:20;2.58;;;1.30;;
4428;SDS011;2227;47.810;8.810;2023-07-30T11:38:49;1.77;;;1.00;;
4428;SDS011;2227;47.810;8.810;2023-07-30T11:41:19;2.05;;;1.10;;
4428;SDS011;2227;47.810;8.810;2023-07-30T11:43:48;1.83;;;1.20;;
4428;SDS011;2227;47.810;8.810;2023-07-30T11:46:15;2.85;;;1.10;;
4428;SDS011;2227;47.810;8.810;2023-07-30T11:48:44;1.98;;;1.00;;
4428;SDS011;2227;47.810;8.810;2023-07-30T11:53:49;2.55;;;1.27;;
4428;SDS011;2227;47.810;8.810;2023-07-30T11:56:31;2.05;;;1.05;;
4428;SDS011;2227;47.810;8.810;2023-07-30T11:59:00;2.80;;;1.30;;
4428;SDS011;2227;47.810;8.810;2023-07-30T12:01:30;2.60;;;1.20;;
4428;SDS011;2227;47.810;8.810;2023-07-30T12:04:01;1.95;;;1.00;;
4428;SDS011;2227;47.810;8.810;2023-07-30T12:09:10;1.95;;;1.08;;
4428;SDS011;2227;47.810;8.810;2023-07-30T12:14:20;1.90;;;1.13;;
4428;SDS011;2227;47.810;8.810;2023-07-30T12:16:51;1.95;;;1.10;;
4428;SDS011;2227;47.810;8.810;2023-07-30T12:19:18;1.65;;;1.00;;
4428;SDS011;2227;47.810;8.810;2023-07-30T12:21:45;2.13;;;0.98;;
4428;SDS011;2227;47.810;8.810;2023-07-30T12:24:12;2.13;;;1.10;;
4428;SDS011;2227;47.810;8.810;2023-07-30T12:26:39;1.70;;;1.13;;
4428;SDS011;2227;47.810;8.810;2023-07-30T12:29:05;3.17;;;1.30;;
4428;SDS011;2227;47.810;8.810;2023-07-30T12:31:32;2.13;;;1.23;;
4428;SDS011;2227;47.810;8.810;2023-07-30T12:33:59;2.03;;;1.20;;
4428;SDS011;2227;47.810;8.810;2023-07-30T12:36:26;2.80;;;0.93;;
4428;SDS011;2227;47.810;8.810;2023-07-30T12:38:53;2.45;;;1.30;;
4428;SDS011;2227;47.810;8.810;2023-07-30T12:41:20;2.22;;;1.17;;
4428;SDS011;2227;47.810;8.810;2023-07-30T12:43:53;2.88;;;1.27;;
4428;SDS011;2227;47.810;8.810;2023-07-30T12:46:23;3.67;;;1.20;;
4428;SDS011;2227;47.810;8.810;2023-07-30T12:48:51;2.45;;;1.10;;
4428;SDS011;2227;47.810;8.810;2023-07-30T12:51:18;3.22;;;1.20;;
4428;SDS011;2227;47.810;8.810;2023-07-30T12:53:45;2.22;;;1.30;;
4428;SDS011;2227;47.810;8.810;2023-07-30T12:56:11;2.30;;;1.25;;
4428;SDS011;2227;47.810;8.810;2023-07-30T12:58:38;2.10;;;0.93;;
4428;SDS011;2227;47.810;8.810;2023-07-30T13:01:06;2.67;;;1.33;;
4428;SDS011;2227;47.810;8.810;2023-07-30T13:03:33;2.20;;;1.10;;
4428;SDS011;2227;47.810;8.810;2023-07-30T13:06:00;2.78;;;1.13;;
4428;SDS011;2227;47.810;8.810;2023-07-30T13:08:27;2.13;;;1.10;;
4428;SDS011;2227;47.810;8.810;2023-07-30T13:10:54;2.38;;;1.35;;
4428;SDS011;2227;47.810;8.810;2023-07-30T13:13:21;3.13;;;1.23;;
4428;SDS011;2227;47.810;8.810;2023-07-30T13:15:47;2.13;;;1.00;;
4428;SDS011;2227;47.810;8.810;2023-07-30T13:18:14;1.88;;;1.10;;
4428;SDS011;2227;47.810;8.810;2023-07-30T13:20:41;1.88;;;1.15;;
4428;SDS011;2227;47.810;8.810;2023-07-30T13:23:08;3.45;;;1.30;;
4428;SDS011;2227;47.810;8.810;2023-07-30T13:25:34;2.55;;;1.30;;
4428;SDS011;2227;47.810;8.810;2023-07-30T13:28:01;3.20;;;1.30;;
4428;SDS011;2227;47.810;8.810;2023-07-30T13:30:28;2.25;;;1.25;;
4428;SDS011;2227;47.810;8.810;2023-07-30T13:32:55;2.95;;;1.50;;
4428;SDS011;2227;47.810;8.810;2023-07-30T13:35:21;2.08;;;1.10;;
4428;SDS011;2227;47.810;8.810;2023-07-30T13:37:48;1.95;;;0.93;;
4428;SDS011;2227;47.810;8.810;2023-07-30T13:40:15;2.60;;;1.17;;
4428;SDS011;2227;47.810;8.810;2023-07-30T13:42:41;3.63;;;1.40;;
4428;SDS011;2227;47.810;8.810;2023-07-30T13:45:08;3.33;;;1.30;;
4428;SDS011;2227;47.810;8.810;2023-07-30T13:47:35;3.20;;;1.30;;
4428;SDS011;2227;47.810;8.810;2023-07-30T13:50:02;3.30;;;1.10;;
4428;SDS011;2227;47.810;8.810;2023-07-30T13:52:31;3.47;;;1.40;;
4428;SDS011;2227;47.810;8.810;2023-07-30T13:54:57;1.85;;;1.00;;
4428;SDS011;2227;47.810;8.810;2023-07-30T13:57:24;2.25;;;1.02;;
4428;SDS011;2227;47.810;8.810;2023-07-30T13:59:52;2.55;;;1.20;;
4428;SDS011;2227;47.810;8.810;2023-07-30T14:02:19;2.65;;;1.10;;
4428;SDS011;2227;47.810;8.810;2023-07-30T14:04:46;3.15;;;1.00;;
4428;SDS011;2227;47.810;8.810;2023-07-30T14:07:13;2.15;;;1.20;;
4428;SDS011;2227;47.810;8.810;2023-07-30T14:09:40;2.30;;;1.08;;
4428;SDS011;2227;47.810;8.810;2023-07-30T14:12:08;2.30;;;1.20;;
4428;SDS011;2227;47.810;8.810;2023-07-30T14:14:35;3.13;;;1.98;;
4428;SDS011;2227;47.810;8.810;2023-07-30T14:17:02;3.03;;;1.30;;
4428;SDS011;2227;47.810;8.810;2023-07-30T14:19:33;2.40;;;0.93;;
4428;SDS011;2227;47.810;8.810;2023-07-30T14:22:00;2.03;;;1.10;;
4428;SDS011;2227;47.810;8.810;2023-07-30T14:24:27;2.70;;;1.33;;
4428;SDS011;2227;47.810;8.810;2023-07-30T14:26:54;2.35;;;1.02;;
4428;SDS011;2227;47.810;8.810;2023-07-30T14:29:22;3.08;;;0.98;;
4428;SDS011;2227;47.810;8.810;2023-07-30T14:31:49;2.22;;;1.20;;
4428;SDS011;2227;47.810;8.810;2023-07-30T14:34:15;2.85;;;1.10;;
4428;SDS011;2227;47.810;8.810;2023-07-30T14:36:42;1.92;;;0.90;;
4428;SDS011;2227;47.810;8.810;2023-07-30T14:39:09;2.13;;;1.10;;
4428;SDS011;2227;47.810;8.810;2023-07-30T14:41:37;2.22;;;1.02;;
4428;SDS011;2227;47.810;8.810;2023-07-30T14:44:05;1.90;;;1.10;;
4428;SDS011;2227;47.810;8.810;2023-07-30T14:46:31;1.90;;;0.93;;
4428;SDS011;2227;47.810;8.810;2023-07-30T14:48:59;2.47;;;1.20;;
4428;SDS011;2227;47.810;8.810;2023-07-30T14:51:25;2.95;;;1.20;;
4428;SDS011;2227;47.810;8.810;2023-07-30T14:53:52;2.00;;;0.98;;
4428;SDS011;2227;47.810;8.810;2023-07-30T14:56:19;2.22;;;1.02;;
4428;SDS011;2227;47.810;8.810;2023-07-30T14:58:45;1.83;;;0.90;;
4428;SDS011;2227;47.810;8.810;2023-07-30T15:01:12;2.58;;;0.90;;
4428;SDS011;2227;47.810;8.810;2023-07-30T15:03:39;2.13;;;1.23;;
4428;SDS011;2227;47.810;8.810;2023-07-30T15:06:06;2.88;;;1.33;;
4428;SDS011;2227;47.810;8.810;2023-07-30T15:08:33;2.20;;;0.90;;
4428;SDS011;2227;47.810;8.810;2023-07-30T15:11:00;2.80;;;1.30;;
4428;SDS011;2227;47.810;8.810;2023-07-30T15:13:27;3.33;;;1.33;;
4428;SDS011;2227;47.810;8.810;2023-07-30T15:15:54;3.20;;;1.20;;
4428;SDS011;2227;47.810;8.810;2023-07-30T15:18:20;2.72;;;1.08;;
4428;SDS011;2227;47.810;8.810;2023-07-30T15:20:47;2.72;;;1.20;;
4428;SDS011;2227;47.810;8.810;2023-07-30T15:23:14;1.73;;;0.90;;
4428;SDS011;2227;47.810;8.810;2023-07-30T15:25:42;2.40;;;1.15;;
4428;SDS011;2227;47.810;8.810;2023-07-30T15:28:09;3.25;;;1.60;;
4428;SDS011;2227;47.810;8.810;2023-07-30T15:30:36;3.00;;;1.45;;
4428;SDS011;2227;47.810;8.810;2023-07-30T15:33:04;2.85;;;1.10;;
4428;SDS011;2227;47.810;8.810;2023-07-30T15:35:34;2.97;;;1.10;;
4428;SDS011;2227;47.810;8.810;2023-07-30T15:38:00;3.30;;;1.10;;
4428;SDS011;2227;47.810;8.810;2023-07-30T15:40:27;2.58;;;1.02;;
4428;SDS011;2227;47.810;8.810;2023-07-30T15:42:54;3.55;;;1.33;;
4428;SDS011;2227;47.810;8.810;2023-07-30T15:45:21;2.42;;;1.00;;
4428;SDS011;2227;47.810;8.810;2023-07-30T15:47:47;2.53;;;1.15;;
4428;SDS011;2227;47.810;8.810;2023-07-30T15:50:15;2.22;;;1.20;;
4428;SDS011;2227;47.810;8.810;2023-07-30T15:52:43;2.42;;;1.08;;
4428;SDS011;2227;47.810;8.810;2023-07-30T15:55:09;2.63;;;1.13;;
4428;SDS011;2227;47.810;8.810;2023-07-30T15:57:36;2.35;;;1.00;;
4428;SDS011;2227;47.810;8.810;2023-07-30T16:00:03;2.90;;;1.15;;
4428;SDS011;2227;47.810;8.810;2023-07-30T16:02:32;1.67;;;0.98;;
4428;SDS011;2227;47.810;8.810;2023-07-30T16:04:59;1.85;;;1.00;;
4428;SDS011;2227;47.810;8.810;2023-07-30T16:07:26;3.08;;;1.38;;
4428;SDS011;2227;47.810;8.810;2023-07-30T16:09:53;2.42;;;1.13;;
4428;SDS011;2227;47.810;8.810;2023-07-30T16:12:19;2.58;;;1.23;;
4428;SDS011;2227;47.810;8.810;2023-07-30T16:14:46;2.63;;;1.23;;
4428;SDS011;2227;47.810;8.810;2023-07-30T16:17:17;2.60;;;1.20;;
4428;SDS011;2227;47.810;8.810;2023-07-30T16:19:43;2.63;;;1.08;;
4428;SDS011;2227;47.810;8.810;2023-07-30T16:22:10;2.75;;;1.20;;
4428;SDS011;2227;47.810;8.810;2023-07-30T16:24:37;3.03;;;1.38;;
4428;SDS011;2227;47.810;8.810;2023-07-30T16:27:04;2.35;;;1.48;;
4428;SDS011;2227;47.810;8.810;2023-07-30T16:29:31;2.90;;;1.42;;
4428;SDS011;2227;47.810;8.810;2023-07-30T16:31:58;3.38;;;1.10;;
4428;SDS011;2227;47.810;8.810;2023-07-30T16:34:25;2.70;;;1.25;;
4428;SDS011;2227;47.810;8.810;2023-07-30T16:36:52;2.05;;;1.20;;
4428;SDS011;2227;47.810;8.810;2023-07-30T16:39:18;2.92;;;1.30;;
4428;SDS011;2227;47.810;8.810;2023-07-30T16:41:45;2.47;;;1.08;;
4428;SDS011;2227;47.810;8.810;2023-07-30T16:44:12;1.90;;;1.00;;
4428;SDS011;2227;47.810;8.810;2023-07-30T16:46:38;2.40;;;1.20;;
4428;SDS011;2227;47.810;8.810;2023-07-30T16:49:06;2.65;;;1.20;;
4428;SDS011;2227;47.810;8.810;2023-07-30T16:51:34;3.55;;;1.48;;
4428;SDS011;2227;47.810;8.810;2023-07-30T16:54:00;2.55;;;1.10;;
4428;SDS011;2227;47.810;8.810;2023-07-30T16:56:27;3.80;;;1.40;;
4428;SDS011;2227;47.810;8.810;2023-07-30T16:58:54;3.00;;;1.10;;
4428;SDS011;2227;47.810;8.810;2023-07-30T17:01:21;3.92;;;1.60;;
4428;SDS011;2227;47.810;8.810;2023-07-30T17:03:48;2.17;;;1.23;;
4428;SDS011;2227;47.810;8.810;2023-07-30T17:06:15;1.85;;;0.90;;
4428;SDS011;2227;47.810;8.810;2023-07-30T17:08:42;2.40;;;1.00;;
4428;SDS011;2227;47.810;8.810;2023-07-30T17:11:09;3.03;;;1.10;;
4428;SDS011;2227;47.810;8.810;2023-07-30T17:13:35;2.92;;;1.20;;
4428;SDS011;2227;47.810;8.810;2023-07-30T17:16:03;2.83;;;1.20;;
4428;SDS011;2227;47.810;8.810;2023-07-30T17:18:33;2.78;;;1.20;;
4428;SDS011;2227;47.810;8.810;2023-07-30T17:21:01;2.47;;;1.20;;
4428;SDS011;2227;47.810;8.810;2023-07-30T17:23:28;2.05;;;1.10;;
4428;SDS011;2227;47.810;8.810;2023-07-30T17:25:55;2.42;;;1.23;;
4428;SDS011;2227;47.810;8.810;2023-07-30T17:28:23;2.28;;;1.15;;
4428;SDS011;2227;47.810;8.810;2023-07-30T17:30:50;3.60;;;1.08;;
4428;SDS011;2227;47.810;8.810;2023-07-30T17:33:17;5.55;;;1.42;;
4428;SDS011;2227;47.810;8.810;2023-07-30T17:35:45;2.60;;;1.13;;
4428;SDS011;2227;47.810;8.810;2023-07-30T17:38:13;3.50;;;1.20;;
4428;SDS011;2227;47.810;8.810;2023-07-30T17:40:48;2.25;;;1.10;;
4428;SDS011;2227;47.810;8.810;2023-07-30T17:43:16;2.05;;;0.98;;
4428;SDS011;2227;47.810;8.810;2023-07-30T17:45:42;1.60;;;0.90;;
4428;SDS011;2227;47.810;8.810;2023-07-30T17:48:09;2.10;;;1.10;;
4428;SDS011;2227;47.810;8.810;2023-07-30T17:50:36;2.17;;;0.90;;
4428;SDS011;2227;47.810;8.810;2023-07-30T17:53:04;2.53;;;0.93;;
4428;SDS011;2227;47.810;8.810;2023-07-30T17:55:32;2.88;;;1.15;;
4428;SDS011;2227;47.810;8.810;2023-07-30T17:57:59;2.58;;;1.10;;
4428;SDS011;2227;47.810;8.810;2023-07-30T18:00:26;3.95;;;1.17;;
4428;SDS011;2227;47.810;8.810;2023-07-30T18:02:54;2.55;;;1.10;;
4428;SDS011;2227;47.810;8.810;2023-07-30T18:05:21;3.63;;;1.25;;
4428;SDS011;2227;47.810;8.810;2023-07-30T18:07:48;2.55;;;1.05;;
4428;SDS011;2227;47.810;8.810;2023-07-30T18:10:18;3.75;;;1.30;;
4428;SDS011;2227;47.810;8.810;2023-07-30T18:12:45;3.72;;;1.33;;
4428;SDS011;2227;47.810;8.810;2023-07-30T18:15:12;2.22;;;1.17;;
4428;SDS011;2227;47.810;8.810;2023-07-30T18:17:39;1.73;;;1.00;;
4428;SDS011;2227;47.810;8.810;2023-07-30T18:20:06;3.63;;;1.50;;
4428;SDS011;2227;47.810;8.810;2023-07-30T18:22:34;3.05;;;1.13;;
4428;SDS011;2227;47.810;8.810;2023-07-30T18:25:00;3.00;;;1.08;;
4428;SDS011;2227;47.810;8.810;2023-07-30T18:27:27;3.08;;;1.20;;
4428;SDS011;2227;47.810;8.810;2023-07-30T18:29:54;2.15;;;1.20;;
4428;SDS011;2227;47.810;8.810;2023-07-30T18:32:20;3.35;;;1.33;;
4428;SDS011;2227;47.810;8.810;2023-07-30T18:34:47;3.10;;;1.20;;
4428;SDS011;2227;47.810;8.810;2023-07-30T18:37:14;2.97;;;1.10;;
4428;SDS011;2227;47.810;8.810;2023-07-30T18:39:41;2.28;;;1.15;;
4428;SDS011;2227;47.810;8.810;2023-07-30T18:42:08;2.22;;;1.17;;
4428;SDS011;2227;47.810;8.810;2023-07-30T18:44:34;2.63;;;1.20;;
4428;SDS011;2227;47.810;8.810;2023-07-30T18:47:01;2.63;;;1.30;;
4428;SDS011;2227;47.810;8.810;2023-07-30T18:49:28;2.22;;;1.00;;
4428;SDS011;2227;47.810;8.810;2023-07-30T18:51:54;4.38;;;1.50;;
4428;SDS011;2227;47.810;8.810;2023-07-30T18:54:21;2.70;;;1.30;;
4428;SDS011;2227;47.810;8.810;2023-07-30T18:56:48;2.97;;;1.08;;
4428;SDS011;2227;47.810;8.810;2023-07-30T18:59:15;3.22;;;1.20;;
4428;SDS011;2227;47.810;8.810;2023-07-30T19:01:42;3.42;;;1.05;;
4428;SDS011;2227;47.810;8.810;2023-07-30T19:04:09;4.10;;;1.25;;
4428;SDS011;2227;47.810;8.810;2023-07-30T19:06:36;3.53;;;1.05;;
4428;SDS011;2227;47.810;8.810;2023-07-30T19:09:03;3.05;;;1.15;;
4428;SDS011;2227;47.810;8.810;2023-07-30T19:11:30;3.63;;;1.35;;
4428;SDS011;2227;47.810;8.810;2023-07-30T19:13:57;2.35;;;1.25;;
4428;SDS011;2227;47.810;8.810;2023-07-30T19:16:24;3.25;;;1.10;;
4428;SDS011;2227;47.810;8.810;2023-07-30T19:18:51;5.07;;;1.20;;
4428;SDS011;2227;47.810;8.810;2023-07-30T19:21:17;3.20;;;1.00;;
4428;SDS011;2227;47.810;8.810;2023-07-30T19:23:44;2.95;;;1.15;;
4428;SDS011;2227;47.810;8.810;2023-07-30T19:26:11;3.40;;;1.20;;
4428;SDS011;2227;47.810;8.810;2023-07-30T19:28:38;2.85;;;1.10;;
4428;SDS011;2227;47.810;8.810;2023-07-30T19:31:05;3.28;;;1.05;;
4428;SDS011;2227;47.810;8.810;2023-07-30T19:33:36;4.30;;;1.33;;
4428;SDS011;2227;47.810;8.810;2023-07-30T19:36:07;3.10;;;1.20;;
4428;SDS011;2227;47.810;8.810;2023-07-30T19:38:34;3.25;;;1.20;;
4428;SDS011;2227;47.810;8.810;2023-07-30T19:41:01;3.17;;;1.27;;
4428;SDS011;2227;47.810;8.810;2023-07-30T19:43:37;2.72;;;1.10;;
4428;SDS011;2227;47.810;8.810;2023-07-30T19:46:03;3.38;;;1.17;;
4428;SDS011;2227;47.810;8.810;2023-07-30T19:48:31;3.05;;;1.20;;
4428;SDS011;2227;47.810;8.810;2023-07-30T19:50:59;3.25;;;1.20;;
4428;SDS011;2227;47.810;8.810;2023-07-30T19:53:25;4.60;;;1.20;;
4428;SDS011;2227;47.810;8.810;2023-07-30T19:55:52;3.03;;;0.88;;
4428;SDS011;2227;47.810;8.810;2023-07-30T19:58:29;4.50;;;1.17;;
4428;SDS011;2227;47.810;8.810;2023-07-30T20:00:58;3.90;;;1.30;;